createdAt,value
2018-11-21T00:00:31.501Z,4.30
2018-11-21T00:03:00.364Z,4.30
2018-11-21T00:05:28.997Z,4.20
2018-11-21T00:07:58.214Z,4.20
2018-11-21T00:10:27.011Z,4.20
2018-11-21T00:12:56.929Z,4.20
2018-11-21T00:15:26.081Z,4.20
2018-11-21T00:17:55.200Z,4.20
2018-11-21T00:20:23.967Z,4.20
2018-11-21T00:22:52.986Z,4.20
2018-11-21T00:25:22.043Z,4.30
2018-11-21T00:27:50.873Z,4.20
2018-11-21T00:30:19.879Z,4.20
2018-11-21T00:32:48.649Z,4.20
2018-11-21T00:35:17.431Z,4.30
2018-11-21T00:37:46.458Z,4.20
2018-11-21T00:40:15.653Z,4.20
2018-11-21T00:42:46.953Z,4.10
2018-11-21T00:45:13.558Z,4.10
2018-11-21T00:47:42.395Z,4.00
2018-11-21T00:50:11.749Z,3.90
2018-11-21T00:52:40.609Z,3.90
2018-11-21T00:55:09.329Z,3.80
2018-11-21T00:57:38.313Z,3.80
2018-11-21T01:00:09.358Z,3.80
2018-11-21T01:02:38.152Z,3.80
2018-11-21T01:05:07.580Z,3.70
2018-11-21T01:07:36.681Z,3.70
2018-11-21T01:10:05.697Z,3.70
2018-11-21T01:12:34.694Z,3.70
2018-11-21T01:15:03.763Z,3.70
2018-11-21T01:17:32.483Z,3.70
2018-11-21T01:20:01.358Z,3.70
2018-11-21T01:22:30.153Z,3.70
2018-11-21T01:25:00.226Z,3.70
2018-11-21T01:27:29.088Z,3.70
2018-11-21T01:29:57.995Z,3.70
2018-11-21T01:32:26.865Z,3.70
2018-11-21T01:34:55.608Z,3.70
2018-11-21T01:37:24.863Z,3.70
2018-11-21T01:39:53.659Z,3.60
2018-11-21T01:42:23.238Z,3.60
2018-11-21T01:44:52.051Z,3.60
2018-11-21T01:47:20.833Z,3.60
2018-11-21T01:49:50.203Z,3.60
2018-11-21T01:52:19.155Z,3.50
2018-11-21T01:54:47.910Z,3.40
2018-11-21T01:57:17.309Z,3.30
2018-11-21T01:59:46.968Z,3.20
2018-11-21T02:02:15.895Z,3.50
2018-11-21T02:04:44.690Z,3.40
2018-11-21T02:07:13.421Z,3.40
2018-11-21T02:09:42.240Z,3.40
2018-11-21T02:12:11.071Z,3.30
2018-11-21T02:14:40.651Z,3.20
2018-11-21T02:17:09.411Z,3.20
2018-11-21T02:19:39.397Z,3.30
2018-11-21T02:22:08.296Z,3.20
2018-11-21T02:24:37.358Z,3.20
2018-11-21T02:27:06.343Z,3.20
2018-11-21T02:29:35.261Z,3.30
2018-11-21T02:32:05.733Z,3.30
2018-11-21T02:34:34.818Z,3.20
2018-11-21T02:37:03.943Z,3.20
2018-11-21T02:39:32.635Z,3.20
2018-11-21T02:42:02.037Z,3.20
2018-11-21T02:44:31.172Z,3.20
2018-11-21T02:47:00.114Z,3.30
2018-11-21T02:49:30.374Z,3.20
2018-11-21T02:51:59.501Z,3.20
2018-11-21T02:54:28.248Z,3.20
2018-11-21T02:57:19.023Z,3.30
2018-11-21T02:59:48.666Z,3.30
2018-11-21T03:02:17.637Z,3.20
2018-11-21T03:04:46.517Z,3.30
2018-11-21T03:07:15.509Z,3.30
2018-11-21T03:09:44.297Z,3.30
2018-11-21T03:12:13.436Z,3.30
2018-11-21T03:14:43.194Z,3.20
2018-11-21T03:17:12.427Z,3.20
2018-11-21T03:19:42.122Z,3.20
2018-11-21T03:22:11.553Z,3.20
2018-11-21T03:24:40.334Z,3.20
2018-11-21T03:27:09.324Z,3.10
2018-11-21T03:37:04.967Z,3.00
2018-11-21T03:39:33.788Z,3.10
2018-11-21T03:42:02.699Z,3.10
2018-11-21T03:44:31.571Z,3.00
2018-11-21T03:47:00.489Z,3.00
2018-11-21T03:49:29.435Z,3.00
2018-11-21T03:51:58.368Z,3.00
2018-11-21T03:54:27.145Z,3.00
2018-11-21T03:56:55.888Z,3.10
2018-11-21T03:59:25.283Z,3.10
2018-11-21T04:01:54.165Z,3.10
2018-11-21T04:04:24.175Z,3.00
2018-11-21T04:06:53.013Z,3.00
2018-11-21T04:09:22.083Z,2.90
2018-11-21T04:11:51.780Z,4.10
2018-11-21T04:24:14.652Z,2.80
2018-11-21T04:26:43.537Z,2.80
2018-11-21T04:29:12.765Z,2.70
2018-11-21T04:31:41.455Z,2.60
2018-11-21T04:34:11.794Z,2.60
2018-11-21T04:36:40.567Z,2.50
2018-11-21T04:39:10.544Z,2.30
2018-11-21T04:41:39.438Z,2.20
2018-11-21T04:44:08.121Z,2.10
2018-11-21T04:46:37.225Z,1.90
2018-11-21T04:49:06.212Z,1.90
2018-11-21T04:51:34.949Z,1.80
2018-11-21T04:54:04.745Z,1.70
2018-11-21T04:56:33.364Z,1.60
2018-11-21T04:59:02.117Z,1.50
2018-11-21T05:01:31.058Z,1.40
2018-11-21T05:04:00.135Z,1.40
2018-11-21T05:06:29.889Z,1.40
2018-11-21T05:08:58.623Z,1.30
2018-11-21T05:11:27.622Z,1.30
2018-11-21T05:13:57.066Z,1.20
2018-11-21T05:16:27.034Z,1.20
2018-11-21T05:18:56.308Z,1.10
2018-11-21T05:21:25.706Z,1.10
2018-11-21T05:23:54.498Z,1.00
2018-11-21T05:26:23.448Z,0.90
2018-11-21T05:28:52.301Z,1.00
2018-11-21T05:31:21.302Z,1.00
2018-11-21T05:33:50.195Z,1.10
2018-11-21T05:36:19.319Z,0.80
2018-11-21T05:38:48.452Z,0.90
2018-11-21T05:41:17.641Z,0.80
2018-11-21T05:43:46.445Z,0.90
2018-11-21T05:46:15.331Z,0.90
2018-11-21T05:48:44.203Z,1.10
2018-11-21T05:51:13.017Z,1.20
2018-11-21T05:53:41.896Z,1.10
2018-11-21T05:56:11.091Z,1.00
2018-11-21T05:58:40.204Z,1.00
2018-11-21T06:01:08.987Z,1.00
2018-11-21T06:03:37.754Z,1.00
2018-11-21T06:06:09.950Z,0.90
2018-11-21T06:08:35.665Z,0.80
2018-11-21T06:11:04.622Z,0.60
2018-11-21T06:13:33.397Z,0.60
2018-11-21T06:16:02.413Z,0.70
2018-11-21T06:18:31.391Z,0.70
2018-11-21T06:21:01.358Z,0.70
2018-11-21T06:23:30.079Z,0.70
2018-11-21T06:25:59.173Z,0.50
2018-11-21T06:28:28.488Z,0.40
2018-11-21T06:30:58.664Z,0.40
2018-11-21T06:33:28.160Z,0.50
2018-11-21T06:35:57.274Z,0.70
2018-11-21T06:38:26.551Z,0.60
2018-11-21T06:40:55.496Z,0.40
2018-11-21T06:43:24.607Z,0.40
2018-11-21T06:45:53.835Z,0.40
2018-11-21T06:48:22.566Z,0.40
2018-11-21T06:50:51.228Z,0.40
2018-11-21T06:53:20.094Z,0.30
2018-11-21T06:55:49.010Z,0.40
2018-11-21T06:58:18.648Z,0.50
2018-11-21T07:00:47.415Z,0.60
2018-11-21T07:03:16.224Z,0.70
2018-11-21T07:05:45.451Z,0.70
2018-11-21T07:08:14.513Z,0.80
2018-11-21T07:10:43.407Z,0.90
2018-11-21T07:13:12.529Z,1.10
2018-11-21T07:15:41.349Z,1.20
2018-11-21T07:18:10.252Z,1.10
2018-11-21T07:20:39.462Z,1.20
2018-11-21T07:23:08.301Z,1.20
2018-11-21T07:25:37.138Z,1.30
2018-11-21T07:28:05.881Z,1.30
2018-11-21T07:30:34.993Z,1.10
2018-11-21T07:33:04.673Z,1.20
2018-11-21T07:35:33.906Z,1.20
2018-11-21T07:38:02.992Z,1.30
2018-11-21T07:40:33.575Z,1.30
2018-11-21T07:43:03.799Z,1.20
2018-11-21T07:45:33.643Z,1.30
2018-11-21T07:48:02.350Z,1.50
2018-11-21T07:50:31.169Z,1.60
2018-11-21T07:53:00.420Z,1.60
2018-11-21T07:55:30.326Z,1.70
2018-11-21T07:58:01.311Z,1.50
2018-11-21T08:01:21.585Z,1.70
2018-11-21T08:03:55.169Z,1.70
2018-11-21T08:06:42.993Z,1.90
2018-11-21T08:09:42.988Z,2.30
2018-11-21T08:12:31.381Z,2.90
2018-11-21T08:15:22.362Z,3.40
2018-11-21T08:18:20.319Z,3.80
2018-11-21T08:21:17.720Z,4.00
2018-11-21T08:24:04.570Z,4.30
2018-11-21T08:27:01.359Z,5.20
2018-11-21T08:29:30.420Z,5.30
2018-11-21T08:31:59.315Z,5.20
2018-11-21T08:34:28.056Z,5.40
2018-11-21T08:36:57.229Z,5.40
2018-11-21T08:39:25.951Z,4.90
2018-11-21T08:41:56.373Z,5.80
2018-11-21T08:44:25.139Z,6.10
2018-11-21T08:46:53.865Z,5.60
2018-11-21T08:49:22.561Z,6.50
2018-11-21T08:51:51.357Z,6.90
2018-11-21T08:54:20.032Z,6.90
2018-11-21T08:56:48.687Z,7.00
2018-11-21T08:59:17.243Z,7.10
2018-11-21T09:01:47.075Z,7.50
2018-11-21T09:04:17.348Z,7.90
2018-11-21T09:06:46.019Z,7.80
2018-11-21T09:09:18.180Z,7.70
2018-11-21T09:11:48.147Z,7.80
2018-11-21T09:14:16.821Z,6.50
2018-11-21T09:16:45.463Z,6.00
2018-11-21T09:19:17.084Z,6.00
2018-11-21T09:21:46.202Z,5.80
2018-11-21T09:24:14.867Z,6.00
2018-11-21T09:26:43.669Z,6.20
2018-11-21T09:29:13.445Z,7.00
2018-11-21T09:31:43.618Z,7.60
2018-11-21T09:34:13.543Z,7.50
2018-11-21T09:36:42.609Z,7.30
2018-11-21T09:39:12.734Z,7.20
2018-11-21T09:41:41.922Z,7.10
2018-11-21T09:44:11.424Z,7.30
2018-11-21T09:46:40.423Z,7.40
2018-11-21T09:49:10.074Z,7.00
2018-11-21T09:51:41.291Z,6.80
2018-11-21T09:54:09.955Z,6.50
2018-11-21T09:56:38.630Z,6.40
2018-11-21T09:59:07.300Z,6.60
2018-11-21T10:02:15.249Z,6.30
2018-11-21T10:04:43.912Z,6.30
2018-11-21T10:07:13.731Z,6.00
2018-11-21T10:09:44.435Z,5.90
2018-11-21T10:12:13.132Z,5.90
2018-11-21T10:14:41.761Z,5.60
2018-11-21T10:17:10.479Z,5.60
2018-11-21T10:19:40.285Z,5.60
2018-11-21T10:22:09.371Z,5.60
2018-11-21T10:24:39.557Z,5.40
2018-11-21T10:27:09.303Z,5.40
2018-11-21T10:29:41.709Z,5.20
2018-11-21T10:32:10.946Z,5.00
2018-11-21T10:34:41.140Z,4.90
2018-11-21T10:37:11.405Z,5.00
2018-11-21T10:39:40.110Z,5.20
2018-11-21T10:42:10.728Z,5.10
2018-11-21T10:44:39.860Z,5.00
2018-11-21T10:47:08.546Z,5.10
2018-11-21T10:49:38.938Z,5.20
2018-11-21T10:52:08.486Z,5.30
2018-11-21T10:54:37.246Z,5.20
2018-11-21T10:57:05.909Z,5.40
2018-11-21T10:59:34.649Z,5.50
2018-11-21T11:02:22.887Z,5.30
2018-11-21T11:04:59.143Z,5.70
2018-11-21T11:07:50.053Z,5.80
2018-11-21T11:10:36.117Z,5.60
2018-11-21T11:13:22.537Z,5.80
2018-11-21T11:16:09.474Z,5.80
2018-11-21T11:19:03.143Z,5.70
2018-11-21T11:21:53.621Z,5.90
2018-11-21T11:24:56.905Z,5.80
2018-11-21T11:27:55.058Z,5.80
2018-11-21T11:30:42.840Z,5.80
2018-11-21T11:33:31.081Z,5.30
2018-11-21T11:36:17.510Z,5.40
2018-11-21T11:39:03.853Z,5.40
2018-11-21T11:41:57.831Z,5.30
2018-11-21T11:44:45.927Z,5.50
2018-11-21T11:47:50.458Z,5.50
2018-11-21T11:50:29.683Z,5.70
2018-11-21T11:53:19.868Z,6.10
2018-11-21T11:56:16.751Z,6.40
2018-11-21T11:59:04.911Z,6.30
2018-11-21T12:02:06.496Z,6.70
2018-11-21T12:04:50.609Z,6.50
2018-11-21T12:07:57.484Z,6.30
2018-11-21T12:10:42.160Z,6.40
2018-11-21T12:13:42.922Z,5.90
2018-11-21T12:16:33.712Z,6.10
2018-11-21T12:19:30.613Z,5.90
2018-11-21T12:22:16.694Z,5.80
2018-11-21T12:25:11.137Z,5.60
2018-11-21T12:28:07.736Z,5.40
2018-11-21T12:31:14.617Z,5.50
2018-11-21T12:34:03.146Z,5.70
2018-11-21T12:36:51.045Z,5.70
2018-11-21T12:39:54.657Z,5.70
2018-11-21T12:42:41.500Z,5.70
2018-11-21T12:45:31.881Z,5.50
2018-11-21T12:48:35.102Z,5.50
2018-11-21T12:51:21.473Z,5.50
2018-11-21T12:54:15.436Z,5.70
2018-11-21T12:57:06.566Z,5.70
2018-11-21T12:59:56.918Z,5.80
2018-11-21T13:02:59.513Z,5.50
2018-11-21T13:05:46.776Z,5.40
2018-11-21T13:08:28.749Z,5.20
2018-11-21T13:11:20.453Z,5.20
2018-11-21T13:14:25.479Z,5.20
2018-11-21T13:17:08.342Z,5.20
2018-11-21T13:20:04.934Z,5.20
2018-11-21T13:22:45.675Z,5.10
2018-11-21T13:25:29.786Z,5.20
2018-11-21T13:28:16.627Z,5.20
2018-11-21T13:31:22.422Z,5.20
2018-11-21T13:34:08.865Z,5.20
2018-11-21T13:37:02.204Z,5.10
2018-11-21T13:40:00.652Z,5.00
2018-11-21T13:42:51.012Z,5.10
2018-11-21T13:45:37.099Z,5.10
2018-11-21T13:48:34.010Z,5.00
2018-11-21T13:51:30.614Z,5.10
2018-11-21T13:54:19.598Z,5.10
2018-11-21T13:56:49.526Z,5.20
2018-11-21T13:59:18.224Z,5.20
2018-11-21T14:01:47.407Z,5.30
2018-11-21T14:04:16.457Z,5.30
2018-11-21T14:06:45.197Z,5.30
2018-11-21T14:09:19.376Z,5.30
2018-11-21T14:11:49.110Z,5.30
2018-11-21T14:14:17.878Z,5.30
2018-11-21T14:16:48.347Z,5.20
2018-11-21T14:19:20.154Z,5.20
2018-11-21T14:21:55.846Z,5.20
2018-11-21T14:24:21.547Z,5.30
2018-11-21T14:26:50.527Z,5.20
2018-11-21T14:29:19.199Z,5.10
2018-11-21T14:31:48.003Z,5.20
2018-11-21T14:34:16.674Z,5.10
2018-11-21T14:36:46.179Z,5.10
2018-11-21T14:39:15.361Z,5.00
2018-11-21T14:41:46.859Z,4.90
2018-11-21T14:44:15.927Z,5.00
2018-11-21T14:46:46.635Z,4.90
2018-11-21T14:49:15.479Z,4.90
2018-11-21T14:52:03.716Z,4.80
2018-11-21T14:54:32.548Z,4.80
2018-11-21T14:57:01.518Z,4.80
2018-11-21T14:59:30.317Z,4.80
2018-11-21T15:01:59.182Z,4.70
2018-11-21T15:04:28.289Z,4.70
2018-11-21T15:06:57.148Z,4.70
2018-11-21T15:09:26.091Z,4.70
2018-11-21T15:11:55.032Z,4.60
2018-11-21T15:14:24.725Z,4.60
2018-11-21T15:16:53.513Z,4.60
2018-11-21T15:19:22.360Z,4.50
2018-11-21T15:21:51.416Z,4.50
2018-11-21T15:24:20.367Z,4.40
2018-11-21T15:26:49.686Z,4.40
2018-11-21T15:29:18.726Z,4.40
2018-11-21T15:31:47.720Z,4.40
2018-11-21T15:34:16.548Z,4.30
2018-11-21T15:36:45.370Z,4.30
2018-11-21T15:39:14.581Z,4.30
2018-11-21T15:41:43.425Z,4.20
2018-11-21T15:44:12.140Z,4.20
2018-11-21T15:46:45.689Z,4.10
2018-11-21T15:49:12.062Z,4.20
2018-11-21T15:51:41.222Z,4.10
2018-11-21T15:54:10.431Z,4.00
2018-11-21T15:56:39.320Z,4.00
2018-11-21T15:59:08.436Z,4.00
2018-11-21T16:01:37.817Z,3.90
2018-11-21T16:04:07.050Z,3.90
2018-11-21T16:06:35.954Z,3.90
2018-11-21T16:09:07.549Z,3.90
2018-11-21T16:11:36.319Z,3.90
2018-11-21T16:14:05.540Z,3.80
2018-11-21T16:16:34.372Z,3.80
2018-11-21T16:19:03.106Z,3.80
2018-11-21T16:21:32.224Z,3.80
2018-11-21T16:24:02.241Z,3.70
2018-11-21T16:26:32.245Z,3.70
2018-11-21T16:29:01.145Z,3.60
2018-11-21T16:31:30.343Z,3.60
2018-11-21T16:33:59.782Z,3.50
2018-11-21T16:36:28.506Z,3.50
2018-11-21T16:38:57.531Z,3.50
2018-11-21T16:41:26.267Z,3.40
2018-11-21T16:43:56.018Z,3.40
2018-11-21T16:46:24.915Z,3.30
2018-11-21T16:48:53.871Z,3.30
2018-11-21T16:51:22.725Z,3.20
2018-11-21T16:53:51.338Z,3.20
2018-11-21T16:56:20.117Z,3.20
2018-11-21T16:58:48.810Z,3.20
2018-11-21T17:01:17.988Z,3.20
2018-11-21T17:03:46.716Z,3.20
2018-11-21T17:06:15.831Z,3.20
2018-11-21T17:08:44.570Z,3.20
2018-11-21T17:11:13.617Z,3.20
2018-11-21T17:13:42.318Z,3.10
2018-11-21T17:16:11.104Z,3.10
2018-11-21T17:18:40.271Z,3.10
2018-11-21T17:21:08.959Z,3.00
2018-11-21T17:23:38.844Z,3.00
2018-11-21T17:26:07.676Z,3.00
2018-11-21T17:28:36.630Z,2.90
2018-11-21T17:31:05.286Z,2.90
2018-11-21T17:33:34.093Z,2.90
2018-11-21T17:36:02.793Z,2.80
2018-11-21T17:38:33.704Z,2.80
2018-11-21T17:43:29.097Z,2.70
2018-11-21T17:46:03.993Z,2.70
2018-11-21T17:48:26.851Z,2.70
2018-11-21T17:50:55.608Z,2.70
2018-11-21T17:53:24.625Z,2.70
2018-11-21T17:55:53.350Z,2.70
2018-11-21T17:58:22.291Z,2.70
2018-11-21T18:00:51.086Z,2.60
2018-11-21T18:03:19.761Z,2.60
2018-11-21T18:05:48.660Z,2.60
2018-11-21T18:08:18.211Z,2.60
2018-11-21T18:10:46.922Z,2.70
2018-11-21T18:13:16.321Z,2.70
2018-11-21T18:15:45.132Z,2.80
2018-11-21T18:18:13.988Z,2.80
2018-11-21T18:20:42.676Z,2.90
2018-11-21T18:23:12.220Z,3.00
2018-11-21T18:25:53.635Z,3.10
2018-11-21T18:28:12.183Z,3.20
2018-11-21T18:30:41.411Z,3.20
2018-11-21T18:33:10.250Z,3.20
2018-11-21T18:35:38.969Z,3.30
2018-11-21T18:38:07.691Z,3.30
2018-11-21T18:40:36.813Z,3.40
2018-11-21T18:43:05.861Z,3.40
2018-11-21T18:45:36.704Z,3.50
2018-11-21T18:48:05.951Z,3.60
2018-11-21T18:50:34.843Z,3.50
2018-11-21T18:53:04.948Z,3.50
2018-11-21T18:55:38.973Z,3.60
2018-11-21T18:58:41.611Z,3.60
2018-11-21T19:01:10.626Z,3.50
2018-11-21T19:03:39.980Z,3.50
2018-11-21T19:06:08.837Z,3.60
2018-11-21T19:08:37.691Z,3.60
2018-11-21T19:11:06.986Z,3.60
2018-11-21T19:13:35.922Z,3.60
2018-11-21T19:16:04.638Z,3.60
2018-11-21T19:18:33.853Z,3.60
2018-11-21T19:21:02.867Z,3.60
2018-11-21T19:23:31.701Z,3.60
2018-11-21T19:26:00.339Z,3.60
2018-11-21T19:28:29.753Z,3.60
2018-11-21T19:30:59.009Z,3.70
2018-11-21T19:33:28.022Z,3.70
2018-11-21T19:35:56.940Z,3.70
2018-11-21T19:38:25.735Z,3.70
2018-11-21T19:40:55.216Z,3.80
2018-11-21T19:43:24.987Z,3.80
2018-11-21T19:45:54.360Z,3.70
2018-11-21T19:48:23.646Z,3.80
2018-11-21T19:50:53.192Z,3.80
2018-11-21T19:53:22.408Z,3.80
2018-11-21T19:55:51.533Z,3.80
2018-11-21T19:58:20.947Z,3.90
2018-11-21T20:00:50.051Z,3.80
2018-11-21T20:03:19.267Z,3.90
2018-11-21T20:05:48.215Z,3.90
2018-11-21T20:08:18.117Z,3.90
2018-11-21T20:10:47.466Z,3.90
2018-11-21T20:13:16.287Z,3.90
2018-11-21T20:15:45.683Z,3.90
2018-11-21T20:18:14.563Z,3.90
2018-11-21T20:20:43.360Z,3.90
2018-11-21T20:23:12.107Z,4.00
2018-11-21T20:25:41.403Z,3.90
2018-11-21T20:28:10.598Z,3.90
2018-11-21T20:30:40.454Z,3.90
2018-11-21T20:33:09.306Z,4.00
2018-11-21T20:35:38.507Z,4.00
2018-11-21T20:38:08.638Z,4.00
2018-11-21T20:40:38.455Z,4.00
2018-11-21T20:43:08.329Z,4.10
2018-11-21T20:45:38.391Z,4.20
2018-11-21T20:48:08.061Z,4.10
2018-11-21T20:50:36.975Z,4.00
2018-11-21T20:53:07.985Z,4.10
2018-11-21T20:55:37.636Z,4.10
2018-11-21T20:58:06.559Z,4.00
2018-11-21T21:00:35.653Z,4.10
2018-11-21T21:05:34.445Z,4.10
2018-11-21T21:08:03.280Z,4.10
2018-11-21T21:10:33.372Z,4.10
2018-11-21T21:13:02.814Z,4.10
2018-11-21T21:15:31.966Z,4.10
2018-11-21T21:18:01.355Z,4.20
2018-11-21T21:20:30.777Z,4.20
2018-11-21T21:23:00.029Z,4.20
2018-11-21T21:25:30.188Z,4.30
2018-11-21T21:27:59.059Z,4.20
2018-11-21T21:30:29.535Z,4.20
2018-11-21T21:32:58.305Z,4.30
2018-11-21T21:35:28.407Z,4.30
2018-11-21T21:37:57.621Z,4.30
2018-11-21T21:40:26.456Z,4.40
2018-11-21T21:42:55.410Z,4.40
2018-11-21T21:45:26.070Z,4.30
2018-11-21T21:47:54.861Z,4.30
2018-11-21T21:50:25.336Z,4.40
2018-11-21T21:52:54.620Z,4.40
2018-11-21T21:55:25.504Z,4.40
2018-11-21T21:57:55.340Z,4.40
2018-11-21T22:00:25.398Z,4.30
2018-11-21T22:02:54.722Z,4.40
2018-11-21T22:05:23.448Z,4.40
2018-11-21T22:07:52.121Z,4.40
2018-11-21T22:10:21.559Z,4.30
2018-11-21T22:12:50.294Z,4.40
2018-11-21T22:15:30.223Z,4.40
2018-11-21T22:18:01.209Z,4.40
2018-11-21T22:20:29.919Z,4.40
2018-11-21T22:22:58.846Z,4.40
2018-11-21T22:25:27.628Z,4.40
2018-11-21T22:27:57.194Z,4.40
2018-11-21T22:30:26.156Z,4.40
2018-11-21T22:32:56.715Z,4.50
2018-11-21T22:35:27.170Z,4.50
2018-11-21T22:37:55.905Z,4.50
2018-11-21T22:40:25.396Z,4.50
2018-11-21T22:42:54.392Z,4.50
2018-11-21T22:45:24.402Z,4.50
